Time;durP1;ratioP1;P1;durP2;ratioP2;P2;SDS_P1;SDS_P2;PMS_P1;PMS_P2;Temp;Humidity;BMP_temperature;BMP_pressure;BME280_temperature;BME280_humidity;BME280_pressure;Samples;Min_cycle;Max_cycle;Signal;HPM_P1;HPM_P2
2021/06/24 09:58:11;;;;;;;3.25;2.95;;;22.30;99.90;;;;;;5171872;27;20599;-51
2021/06/24 10:00:49;;;;;;;3.42;2.85;;;23.00;99.90;;;;;;5171782;27;20219;-52
2021/06/24 10:03:17;;;;;;;2.85;2.65;;;22.90;99.90;;;;;;5171693;27;20261;-53
2021/06/24 10:05:47;;;;;;;2.88;2.65;;;22.80;99.90;;;;;;5171472;27;20315;-53
2021/06/24 10:08:16;;;;;;;2.53;2.33;;;22.80;99.90;;;;;;5171522;27;20602;-51
2021/06/24 10:10:45;;;;;;;2.97;2.78;;;22.90;99.70;;;;;;5171262;27;20218;-51
2021/06/24 10:13:14;;;;;;;2.83;2.63;;;22.80;99.70;;;;;;5171476;27;20205;-50
2021/06/24 10:15:44;;;;;;;2.17;2.03;;;22.80;99.60;;;;;;5171614;27;20204;-49
2021/06/24 10:18:13;;;;;;;4.97;4.55;;;23.00;99.40;;;;;;5171296;27;20234;-51
2021/06/24 10:20:41;;;;;;;2.72;2.50;;;23.10;99.10;;;;;;5171281;27;20684;-50
2021/06/24 10:23:16;;;;;;;3.42;2.80;;;23.30;98.70;;;;;;5171393;27;20626;-54
2021/06/24 10:25:45;;;;;;;2.97;2.20;;;23.50;98.40;;;;;;5171202;27;20716;-54
2021/06/24 10:28:18;;;;;;;3.13;2.63;;;23.70;98.20;;;;;;5171252;27;20228;-54
2021/06/24 10:30:46;;;;;;;4.30;4.00;;;23.90;97.90;;;;;;5170767;27;20244;-53
2021/06/24 10:33:16;;;;;;;3.63;2.92;;;23.90;97.80;;;;;;5171088;27;20291;-54
2021/06/24 10:35:47;;;;;;;2.55;2.35;;;24.20;97.50;;;;;;5171098;27;20200;-50
2021/06/24 10:38:15;;;;;;;2.95;2.70;;;24.40;97.10;;;;;;5170764;27;20200;-51
2021/06/24 10:40:44;;;;;;;3.22;2.97;;;24.30;97.50;;;;;;5170698;27;20666;-52
2021/06/24 10:43:15;;;;;;;3.25;2.95;;;24.20;97.60;;;;;;5170685;27;20208;-51
2021/06/24 10:45:44;;;;;;;2.72;2.53;;;24.20;97.70;;;;;;5170599;27;20634;-51
2021/06/24 10:48:24;;;;;;;3.28;2.78;;;24.40;97.40;;;;;;5170886;27;20208;-48
2021/06/24 10:50:59;;;;;;;2.47;2.30;;;24.60;97.00;;;;;;5170516;27;20296;-51
2021/06/24 10:53:51;;;;;;;3.00;2.80;;;24.70;96.70;;;;;;5170405;27;20610;-53
2021/06/24 10:56:45;;;;;;;3.40;3.10;;;24.50;96.60;;;;;;5170594;27;20300;-54
2021/06/24 10:59:32;;;;;;;3.63;3.33;;;24.40;96.80;;;;;;5156170;27;20200;-51
2021/06/24 11:02:13;;;;;;;2.83;2.63;;;24.70;96.40;;;;;;5156427;27;20205;-53
2021/06/24 11:04:44;;;;;;;3.78;3.05;;;24.90;95.90;;;;;;5156447;27;20295;-51
2021/06/24 11:07:35;;;;;;;5.88;5.03;;;25.00;95.90;;;;;;5156448;27;20224;-54
2021/06/24 11:10:26;;;;;;;4.45;3.08;;;25.10;95.80;;;;;;5156491;27;20205;-51
2021/06/24 11:13:03;;;;;;;2.80;2.60;;;25.00;96.00;;;;;;5156397;27;20650;-50
2021/06/24 11:16:00;;;;;;;3.92;2.83;;;24.80;96.10;;;;;;5156417;27;20277;-52
2021/06/24 11:18:55;;;;;;;3.17;2.97;;;24.70;96.20;;;;;;5156322;27;20296;-52
2021/06/24 11:21:52;;;;;;;3.65;3.33;;;24.70;96.50;;;;;;5156326;27;20653;-50
2021/06/24 11:24:23;;;;;;;3.63;2.88;;;24.90;96.30;;;;;;5156078;27;20723;-51
2021/06/24 11:26:53;;;;;;;3.10;2.90;;;25.10;96.10;;;;;;5156095;27;20330;-53
2021/06/24 11:32:16;;;;;;;3.13;2.83;;;25.30;95.80;;;;;;5152942;27;20676;-48
2021/06/24 11:34:53;;;;;;;4.05;3.10;;;25.40;95.60;;;;;;5155936;27;20303;-51
2021/06/24 11:37:25;;;;;;;2.90;2.70;;;25.20;95.80;;;;;;5155839;27;20208;-49
2021/06/24 11:39:55;;;;;;;3.42;2.78;;;25.00;95.90;;;;;;5156101;27;20291;-51
2021/06/24 11:42:29;;;;;;;3.15;2.90;;;24.90;95.90;;;;;;5155669;27;20243;-51
2021/06/24 11:44:58;;;;;;;2.30;2.20;;;24.70;96.00;;;;;;5155966;27;20823;-52
2021/06/24 11:47:32;;;;;;;5.88;2.88;;;24.70;95.90;;;;;;5155526;27;20221;-51
2021/06/24 12:01:49;;;;;;;3.13;2.83;;;25.40;94.20;;;;;;5155241;27;20345;-54
2021/06/24 12:07:06;;;;;;;1.38;1.25;;;25.70;93.90;;;;;;5129977;22;20289;-52
2021/06/24 12:09:42;;;;;;;2.33;2.10;;;25.70;93.00;;;;;;5052150;28;20670;-50
2021/06/24 12:12:13;;;;;;;2.00;1.80;;;25.60;92.70;;;;;;5053397;28;20239;-45
2021/06/24 12:17:16;;;;;;;2.83;1.20;;;25.60;91.10;;;;;;5130311;27;20986;-45
2021/06/24 12:19:59;;;;;;;3.08;1.92;;;25.60;92.00;;;;;;5110018;28;20240;-42
2021/06/24 12:22:43;;;;;;;1.60;1.27;;;25.70;91.90;;;;;;5109873;28;20202;-45
2021/06/24 12:25:14;;;;;;;2.35;2.15;;;25.70;90.60;;;;;;5109600;28;20591;-44
2021/06/24 12:27:45;;;;;;;1.42;1.33;;;25.70;91.10;;;;;;5109930;28;20594;-42
2021/06/24 12:30:15;;;;;;;1.52;1.42;;;25.70;91.00;;;;;;5109848;28;20210;-45
2021/06/24 12:32:50;;;;;;;2.25;2.00;;;25.60;90.90;;;;;;5109724;28;20683;-47
2021/06/24 12:35:23;;;;;;;2.03;1.52;;;25.70;91.00;;;;;;5109714;28;20225;-45
2021/06/24 12:37:53;;;;;;;1.83;1.30;;;25.60;90.90;;;;;;5109527;28;20289;-43
2021/06/24 12:40:22;;;;;;;1.40;1.30;;;25.50;91.00;;;;;;5109520;28;20259;-44
2021/06/24 12:42:52;;;;;;;1.58;1.48;;;25.40;90.80;;;;;;5109655;28;20293;-43
2021/06/24 12:45:40;;;;;;;3.45;1.80;;;25.40;90.60;;;;;;5109223;28;20703;-43
2021/06/24 12:48:25;;;;;;;1.67;1.58;;;25.20;90.80;;;;;;5108947;28;20657;-45
2021/06/24 12:50:53;;;;;;;1.60;1.27;;;25.20;90.60;;;;;;5109051;28;20675;-44
2021/06/24 12:53:30;;;;;;;1.25;1.15;;;25.10;90.70;;;;;;5109052;28;20202;-43
2021/06/24 12:55:58;;;;;;;2.80;1.50;;;25.20;90.40;;;;;;5108935;28;20226;-46
2021/06/24 12:58:37;;;;;;;2.17;1.55;;;25.20;90.60;;;;;;5108935;28;20364;-48
2021/06/24 13:01:11;;;;;;;2.58;2.38;;;25.40;90.20;;;;;;5109219;28;20306;-45
2021/06/24 13:03:46;;;;;;;1.52;1.42;;;25.50;90.10;;;;;;5109175;28;20213;-44
2021/06/24 13:06:20;;;;;;;2.75;1.40;;;25.50;89.60;;;;;;5109240;28;20210;-46
2021/06/24 13:09:07;;;;;;;1.48;1.38;;;25.30;90.20;;;;;;5108665;28;20329;-43
2021/06/24 13:11:38;;;;;;;2.45;1.20;;;25.20;90.50;;;;;;5108858;28;20210;-43
2021/06/24 13:14:08;;;;;;;1.58;1.45;;;25.40;90.50;;;;;;5108985;28;20298;-45
2021/06/24 13:16:39;;;;;;;1.20;1.10;;;25.50;90.00;;;;;;5108555;28;20287;-44
2021/06/24 13:19:10;;;;;;;1.55;1.45;;;25.40;90.00;;;;;;5108612;28;20297;-45
2021/06/24 13:21:57;;;;;;;1.90;1.63;;;25.30;90.20;;;;;;5108360;28;20210;-47
2021/06/24 13:24:27;;;;;;;1.65;1.40;;;25.30;90.10;;;;;;5108200;28;20316;-44
2021/06/24 13:27:06;;;;;;;1.60;1.50;;;25.30;90.10;;;;;;5103639;28;20209;-44
2021/06/24 13:29:35;;;;;;;1.55;1.30;;;25.10;90.30;;;;;;5094469;28;20249;-45
2021/06/24 13:32:05;;;;;;;1.58;1.48;;;25.00;90.60;;;;;;5094336;28;20297;-42
2021/06/24 13:34:36;;;;;;;3.60;3.33;;;24.90;90.60;;;;;;5094997;28;20210;-46
2021/06/24 13:37:18;;;;;;;1.58;1.45;;;24.90;90.50;;;;;;5094875;28;20223;-47
2021/06/24 13:39:46;;;;;;;2.08;1.55;;;25.10;90.20;;;;;;5094620;28;20450;-47
2021/06/24 13:42:15;;;;;;;2.03;1.40;;;25.20;90.20;;;;;;5094386;28;20232;-46
2021/06/24 13:44:45;;;;;;;1.02;1.02;;;25.40;89.60;;;;;;5094664;28;20246;-46
2021/06/24 13:47:14;;;;;;;1.55;1.45;;;25.50;89.20;;;;;;5094690;28;20213;-48
2021/06/24 13:49:43;;;;;;;2.10;1.88;;;25.50;89.10;;;;;;5094474;28;20306;-43
2021/06/24 13:52:12;;;;;;;2.00;1.55;;;25.70;88.80;;;;;;5094250;28;20237;-49
2021/06/24 13:54:45;;;;;;;2.42;1.27;;;25.80;88.80;;;;;;5094343;28;20294;-46
2021/06/24 13:57:19;;;;;;;2.03;1.80;;;25.70;89.00;;;;;;5094057;28;20266;-45
2021/06/24 13:59:47;;;;;;;1.88;1.38;;;25.60;89.10;;;;;;5094428;28;20234;-46
2021/06/24 14:02:15;;;;;;;2.58;1.55;;;25.50;89.50;;;;;;5094084;28;20249;-46
2021/06/24 14:04:44;;;;;;;2.10;1.42;;;25.50;89.30;;;;;;5093975;28;20305;-44
2021/06/24 14:07:12;;;;;;;2.35;1.63;;;25.50;89.00;;;;;;5093940;28;20238;-44
2021/06/24 14:09:41;;;;;;;1.13;1.02;;;25.50;88.50;;;;;;5093979;28;20234;-45
2021/06/24 14:12:09;;;;;;;1.42;1.30;;;25.80;87.90;;;;;;5094024;28;20206;-49
2021/06/24 14:14:38;;;;;;;1.17;1.08;;;26.20;86.70;;;;;;5093811;28;20312;-46
2021/06/24 14:17:06;;;;;;;1.20;1.10;;;26.20;85.90;;;;;;5093579;28;20317;-44
2021/06/24 14:19:34;;;;;;;1.52;1.30;;;26.20;85.80;;;;;;5093525;28;20720;-45
2021/06/24 14:22:05;;;;;;;3.03;1.40;;;26.10;86.20;;;;;;5093592;28;20293;-43
2021/06/24 14:24:35;;;;;;;1.27;1.20;;;26.40;86.00;;;;;;5093572;28;20343;-47
2021/06/24 14:27:05;;;;;;;2.67;1.80;;;26.80;85.00;;;;;;5093536;28;20289;-45
2021/06/24 14:29:34;;;;;;;1.85;1.65;;;27.20;84.30;;;;;;5093680;28;20245;-47
2021/06/24 14:32:02;;;;;;;2.28;2.08;;;27.30;83.90;;;;;;5093298;28;20214;-48
2021/06/24 14:34:30;;;;;;;1.85;1.75;;;27.40;83.70;;;;;;5093157;28;20221;-44
2021/06/24 14:36:58;;;;;;;4.05;1.95;;;27.50;83.40;;;;;;5093268;28;20291;-49
2021/06/24 14:39:27;;;;;;;1.48;1.38;;;27.50;83.10;;;;;;5092070;28;20659;-44
2021/06/24 14:41:55;;;;;;;2.08;1.55;;;27.40;83.20;;;;;;5093212;28;20305;-46
2021/06/24 14:44:43;;;;;;;2.15;2.00;;;27.10;83.90;;;;;;5093180;28;20661;-45
2021/06/24 14:47:11;;;;;;;1.98;1.58;;;26.80;84.40;;;;;;5093135;28;20298;-45
2021/06/24 14:49:40;;;;;;;1.67;1.20;;;26.60;85.20;;;;;;5093177;28;20301;-45
2021/06/24 14:52:08;;;;;;;2.88;1.45;;;26.30;85.70;;;;;;5093162;28;20569;-46
2021/06/24 14:54:38;;;;;;;3.28;1.45;;;26.20;86.50;;;;;;5092860;28;20579;-45
2021/06/24 14:57:06;;;;;;;4.28;1.40;;;26.20;86.60;;;;;;5092870;28;20226;-45
2021/06/24 14:59:34;;;;;;;2.75;2.55;;;26.10;86.60;;;;;;5092866;28;20587;-46
2021/06/24 15:02:02;;;;;;;1.90;1.75;;;26.00;86.80;;;;;;5092752;28;20343;-47
2021/06/24 15:04:30;;;;;;;2.08;1.88;;;25.90;86.90;;;;;;5092874;28;20302;-47
2021/06/24 15:06:58;;;;;;;2.35;2.08;;;25.90;86.90;;;;;;5092795;28;20617;-45
2021/06/24 15:09:26;;;;;;;1.58;1.45;;;25.90;87.10;;;;;;5092872;28;20555;-47
2021/06/24 15:11:55;;;;;;;1.80;1.42;;;26.20;86.10;;;;;;5092688;28;20316;-47
2021/06/24 15:14:23;;;;;;;2.28;1.52;;;26.50;85.20;;;;;;5092791;28;20297;-44
2021/06/24 15:16:52;;;;;;;2.13;1.33;;;26.60;84.30;;;;;;5092521;28;20242;-46
2021/06/24 15:19:20;;;;;;;1.50;1.40;;;26.60;83.80;;;;;;5092753;28;20207;-43
2021/06/24 15:21:48;;;;;;;2.03;1.92;;;26.80;83.20;;;;;;5092507;28;20206;-43
2021/06/24 15:24:15;;;;;;;2.38;2.17;;;26.90;82.30;;;;;;5092214;28;20736;-48
2021/06/24 15:26:44;;;;;;;1.45;1.35;;;26.90;82.00;;;;;;5092597;28;20649;-48
2021/06/24 15:29:14;;;;;;;1.77;1.42;;;27.00;81.70;;;;;;5092441;28;20210;-43
2021/06/24 15:31:45;;;;;;;2.85;1.38;;;26.80;81.50;;;;;;5092065;28;20584;-44
2021/06/24 15:34:13;;;;;;;1.20;1.10;;;26.60;81.90;;;;;;5092278;28;20262;-43
2021/06/24 15:36:41;;;;;;;1.05;0.95;;;26.40;82.10;;;;;;5093600;28;20261;-45
2021/06/24 15:39:09;;;;;;;4.63;4.22;;;26.40;81.90;;;;;;5092520;28;20217;-45
2021/06/24 15:41:37;;;;;;;1.75;1.48;;;26.40;81.90;;;;;;5092368;28;20213;-47
2021/06/24 15:44:09;;;;;;;2.35;1.35;;;26.30;81.10;;;;;;5092200;28;20290;-49
2021/06/24 15:46:38;;;;;;;1.33;1.23;;;26.20;80.90;;;;;;5092153;28;20213;-46
2021/06/24 15:49:06;;;;;;;5.65;1.23;;;26.20;80.10;;;;;;5091961;28;20210;-44
2021/06/24 15:51:34;;;;;;;0.90;0.90;;;26.30;80.10;;;;;;5091662;28;20301;-43
2021/06/24 15:54:02;;;;;;;2.30;2.10;;;26.30;79.80;;;;;;5092148;28;20207;-42
2021/06/24 15:56:30;;;;;;;1.05;0.98;;;26.40;79.50;;;;;;5091863;28;20202;-42
2021/06/24 15:58:58;;;;;;;10.15;9.38;;;26.40;79.20;;;;;;5091113;28;20704;-44
2021/06/24 16:01:26;;;;;;;1.92;1.30;;;26.40;78.30;;;;;;5091380;28;20203;-45
2021/06/24 16:03:55;;;;;;;1.02;1.00;;;26.40;77.10;;;;;;5090974;28;20250;-43
2021/06/24 16:06:23;;;;;;;1.70;1.15;;;26.50;76.20;;;;;;5091517;28;20293;-44
2021/06/24 16:08:51;;;;;;;0.90;0.90;;;26.60;75.90;;;;;;5091855;28;20298;-46
2021/06/24 16:11:20;;;;;;;2.28;1.73;;;26.60;75.50;;;;;;5091534;28;20302;-42
2021/06/24 16:13:48;;;;;;;1.38;1.27;;;26.50;75.40;;;;;;5091517;28;20216;-46
2021/06/24 16:16:16;;;;;;;1.48;1.20;;;26.40;75.60;;;;;;5091416;28;20249;-49
2021/06/24 16:18:44;;;;;;;1.10;1.00;;;26.30;76.10;;;;;;5091454;28;20270;-46
2021/06/24 16:21:13;;;;;;;3.00;0.80;;;26.10;76.60;;;;;;5091699;28;20203;-43
2021/06/24 16:23:45;;;;;;;1.17;1.08;;;25.90;77.10;;;;;;5091705;28;20297;-45
2021/06/24 16:26:13;;;;;;;1.10;1.00;;;25.80;77.60;;;;;;5101831;28;20293;-44
2021/06/24 16:28:41;;;;;;;1.58;1.40;;;25.90;77.60;;;;;;5091543;28;20515;-44
2021/06/24 16:31:08;;;;;;;1.10;0.98;;;26.60;76.50;;;;;;5092443;28;20385;-46
2021/06/24 16:33:36;;;;;;;1.23;0.80;;;27.10;75.20;;;;;;5091725;28;20716;-43
2021/06/24 16:36:05;;;;;;;1.00;0.90;;;27.10;74.50;;;;;;5091512;28;20298;-48
2021/06/24 16:38:34;;;;;;;0.90;0.70;;;26.90;74.30;;;;;;5091580;28;20232;-45
2021/06/24 16:41:02;;;;;;;2.08;1.30;;;26.70;74.50;;;;;;5091246;28;20281;-42
2021/06/24 16:43:30;;;;;;;2.17;0.90;;;26.40;75.20;;;;;;5091322;28;20297;-42
2021/06/24 16:45:58;;;;;;;2.67;1.13;;;26.00;75.70;;;;;;5091242;28;20305;-41
2021/06/24 16:48:26;;;;;;;1.48;1.38;;;25.60;76.60;;;;;;5091589;28;20629;-43
2021/06/24 16:50:56;;;;;;;1.15;0.90;;;25.30;77.50;;;;;;5091369;28;20261;-42
2021/06/24 16:53:24;;;;;;;1.40;1.30;;;25.00;78.40;;;;;;5091408;28;20253;-46
2021/06/24 16:55:53;;;;;;;1.30;1.13;;;24.90;79.60;;;;;;5091170;28;20234;-45
2021/06/24 16:58:21;;;;;;;2.63;2.42;;;24.80;80.70;;;;;;5091059;28;20226;-46
2021/06/24 17:08:11;;;;;;;3.20;2.95;;;24.30;84.70;;;;;;4289431;28;23169;-43
2021/06/24 17:10:39;;;;;;;1.33;1.23;;;24.10;85.20;;;;;;5034402;28;20212;-44
2021/06/24 17:13:08;;;;;;;1.45;1.35;;;23.90;86.00;;;;;;5034863;28;20209;-44
2021/06/24 17:15:36;;;;;;;4.68;1.40;;;23.70;88.00;;;;;;5034986;28;20303;-42
2021/06/24 17:18:05;;;;;;;6.18;2.15;;;23.40;90.20;;;;;;5034415;28;20224;-44
2021/06/24 17:20:32;;;;;;;7.30;3.80;;;23.10;92.80;;;;;;5034631;28;20216;-42
2021/06/24 17:23:01;;;;;;;5.15;1.90;;;22.80;95.90;;;;;;5034742;28;20263;-42
2021/06/24 17:25:29;;;;;;;6.60;2.90;;;22.30;98.40;;;;;;5034463;28;20292;-41
2021/06/24 17:27:57;;;;;;;3.95;2.60;;;21.80;99.90;;;;;;5034654;28;20239;-42
2021/06/24 17:30:28;;;;;;;10.15;3.13;;;21.30;99.90;;;;;;5034531;28;20248;-44
2021/06/24 17:32:57;;;;;;;7.80;3.50;;;20.90;99.90;;;;;;5034405;28;20704;-42
2021/06/24 17:35:25;;;;;;;4.65;2.90;;;20.50;99.90;;;;;;5034370;28;20212;-41
2021/06/24 17:37:53;;;;;;;2.33;2.13;;;20.40;99.90;;;;;;5034290;28;20320;-49
2021/06/24 17:40:21;;;;;;;2.95;2.20;;;20.30;99.90;;;;;;5034204;28;20307;-42
2021/06/24 17:42:49;;;;;;;3.20;1.95;;;20.30;99.90;;;;;;5034465;28;20295;-42
2021/06/24 17:45:17;;;;;;;3.97;2.08;;;20.40;99.90;;;;;;5034509;28;20208;-47
2021/06/24 17:47:47;;;;;;;4.20;2.03;;;20.40;99.90;;;;;;5034157;28;20303;-43
2021/06/24 17:50:16;;;;;;;2.97;2.72;;;20.50;99.90;;;;;;5034106;28;20271;-45
2021/06/24 17:52:45;;;;;;;2.05;1.60;;;20.60;99.90;;;;;;5034373;28;20213;-47
2021/06/24 17:55:13;;;;;;;2.58;1.67;;;20.80;99.90;;;;;;5034112;28;20686;-43
2021/06/24 17:57:43;;;;;;;3.13;2.47;;;20.90;99.90;;;;;;5034129;28;20208;-45
2021/06/24 18:00:13;;;;;;;2.10;1.90;;;21.10;99.90;;;;;;5034062;28;20303;-43
2021/06/24 18:02:41;;;;;;;3.95;2.50;;;21.10;99.90;;;;;;5033316;28;20636;-42
2021/06/24 18:05:12;;;;;;;3.90;2.45;;;21.10;99.90;;;;;;5033803;28;20213;-43
2021/06/24 18:07:40;;;;;;;4.07;2.88;;;21.10;99.90;;;;;;5033960;28;20291;-44
2021/06/24 18:10:09;;;;;;;3.13;2.33;;;21.10;99.90;;;;;;5033723;28;20237;-44
2021/06/24 18:12:37;;;;;;;2.47;2.28;;;21.10;99.90;;;;;;5033720;28;20676;-43
2021/06/24 18:15:06;;;;;;;3.95;2.85;;;21.00;99.90;;;;;;5033665;28;20209;-42
2021/06/24 18:17:35;;;;;;;3.75;3.45;;;20.90;99.90;;;;;;5033491;28;20300;-46
2021/06/24 18:20:05;;;;;;;3.35;2.70;;;20.80;99.90;;;;;;5033259;28;20278;-42
2021/06/24 18:22:35;;;;;;;13.70;12.48;;;20.70;99.90;;;;;;5033317;28;20213;-45
2021/06/24 18:25:10;;;;;;;4.72;4.32;;;20.70;99.90;;;;;;5033450;28;20254;-43
2021/06/24 18:27:42;;;;;;;4.00;3.38;;;20.50;99.90;;;;;;5033270;28;20773;-41
2021/06/24 18:30:12;;;;;;;4.45;4.05;;;20.30;99.90;;;;;;5033588;28;20287;-41
2021/06/24 18:32:40;;;;;;;3.08;2.75;;;20.20;99.90;;;;;;5034356;28;20248;-41
2021/06/24 18:35:10;;;;;;;5.60;3.22;;;20.20;99.90;;;;;;5033233;28;20678;-44
2021/06/24 18:37:39;;;;;;;5.50;3.85;;;20.20;99.90;;;;;;5033235;28;20601;-44
2021/06/24 18:40:10;;;;;;;4.57;3.88;;;20.10;99.90;;;;;;5032969;28;20224;-45
2021/06/24 18:42:38;;;;;;;3.55;2.95;;;20.00;99.90;;;;;;5033258;28;20292;-42
2021/06/24 18:45:08;;;;;;;3.00;2.80;;;20.00;99.90;;;;;;5033227;28;20258;-42
2021/06/24 18:47:37;;;;;;;6.70;3.08;;;19.90;99.90;;;;;;5033164;28;20299;-43
2021/06/24 18:50:07;;;;;;;4.57;3.60;;;19.80;99.90;;;;;;5033119;28;20288;-42
2021/06/24 18:52:35;;;;;;;10.75;5.25;;;19.80;99.90;;;;;;5032880;28;20213;-47
2021/06/24 18:55:06;;;;;;;6.60;4.13;;;19.80;99.90;;;;;;5032692;28;20303;-46
2021/06/24 18:57:34;;;;;;;6.40;4.05;;;19.70;99.90;;;;;;5032894;28;20324;-45
2021/06/24 19:00:02;;;;;;;5.93;3.40;;;19.70;99.90;;;;;;5032500;28;20235;-43
2021/06/24 19:02:30;;;;;;;3.13;2.83;;;19.60;99.90;;;;;;5032816;28;20253;-42
2021/06/24 19:05:00;;;;;;;5.75;3.38;;;19.60;99.90;;;;;;5032724;28;20213;-44
2021/06/24 19:07:29;;;;;;;3.90;3.08;;;19.50;99.90;;;;;;5032935;28;20225;-41
2021/06/24 19:09:57;;;;;;;3.10;2.90;;;19.50;99.90;;;;;;5032252;28;20236;-41
2021/06/24 19:12:27;;;;;;;5.55;3.45;;;19.40;99.90;;;;;;5032445;28;20208;-43
2021/06/24 19:14:55;;;;;;;3.78;3.47;;;19.40;99.90;;;;;;5032520;28;20311;-43
2021/06/24 19:17:23;;;;;;;6.75;3.15;;;19.40;99.90;;;;;;5032361;28;20263;-41
2021/06/24 19:19:51;;;;;;;3.35;3.05;;;19.30;99.90;;;;;;5032285;28;20227;-42
2021/06/24 19:22:19;;;;;;;4.82;3.45;;;19.20;99.90;;;;;;5032571;28;20296;-43
2021/06/24 19:24:47;;;;;;;2.88;2.65;;;19.20;99.90;;;;;;5031993;28;20303;-46
2021/06/24 19:27:14;;;;;;;5.05;3.53;;;19.20;99.90;;;;;;5032091;28;20243;-44
2021/06/24 19:29:44;;;;;;;3.35;3.05;;;19.20;99.90;;;;;;5032634;28;20288;-44
2021/06/24 19:32:12;;;;;;;3.53;3.22;;;19.20;99.90;;;;;;5032159;28;20227;-42
2021/06/24 19:34:39;;;;;;;4.00;2.95;;;19.20;99.90;;;;;;5032217;28;20205;-47
2021/06/24 19:37:11;;;;;;;4.50;3.63;;;19.20;99.90;;;;;;5032124;28;20220;-45
2021/06/24 19:39:39;;;;;;;7.65;6.85;;;19.20;99.90;;;;;;5032124;28;20311;-45
2021/06/24 19:42:08;;;;;;;4.65;4.20;;;19.20;99.90;;;;;;5032052;28;20633;-43
2021/06/24 19:44:36;;;;;;;5.32;3.67;;;19.20;99.90;;;;;;5031992;28;20679;-46
2021/06/24 19:47:05;;;;;;;7.47;5.45;;;19.20;99.90;;;;;;5032245;28;20323;-45
2021/06/24 19:49:34;;;;;;;4.13;2.63;;;19.10;99.90;;;;;;5031989;28;20660;-49
2021/06/24 19:52:06;;;;;;;5.65;4.32;;;19.00;99.90;;;;;;5032979;28;20219;-45
2021/06/24 19:54:36;;;;;;;4.93;2.40;;;18.70;99.90;;;;;;5032164;28;20208;-42
2021/06/24 19:57:04;;;;;;;5.95;2.42;;;18.40;99.90;;;;;;5031684;28;20240;-44
2021/06/24 19:59:32;;;;;;;6.45;2.05;;;18.10;99.90;;;;;;5031833;28;20296;-46
2021/06/24 20:02:00;;;;;;;4.38;2.25;;;17.90;99.90;;;;;;5032233;28;20204;-46
2021/06/24 20:04:30;;;;;;;7.97;2.65;;;17.80;99.90;;;;;;5031694;28;20576;-43
2021/06/24 20:06:58;;;;;;;2.15;1.67;;;17.70;99.90;;;;;;5031911;28;20244;-44
2021/06/24 20:09:26;;;;;;;1.92;1.55;;;17.60;99.90;;;;;;5031741;28;20730;-43
2021/06/24 20:11:57;;;;;;;3.40;1.98;;;17.50;99.90;;;;;;5031881;28;20216;-43
2021/06/24 20:14:25;;;;;;;3.42;2.25;;;17.50;99.90;;;;;;5032188;28;20223;-43
2021/06/24 20:16:53;;;;;;;4.95;2.05;;;17.50;99.90;;;;;;5031783;28;20299;-46
2021/06/24 20:19:21;;;;;;;4.40;2.22;;;17.50;99.90;;;;;;5031778;28;20591;-43
2021/06/24 20:21:50;;;;;;;4.72;2.10;;;17.50;99.90;;;;;;5031450;28;20209;-43
2021/06/24 20:24:18;;;;;;;2.97;2.30;;;17.40;99.90;;;;;;5031548;28;20217;-42
2021/06/24 20:26:45;;;;;;;3.28;1.95;;;17.40;99.90;;;;;;5031702;28;20350;-42
2021/06/24 20:29:13;;;;;;;1.70;1.55;;;17.30;99.90;;;;;;5031729;28;20205;-43
2021/06/24 20:31:41;;;;;;;3.63;1.70;;;17.30;99.90;;;;;;5031680;28;20219;-41
2021/06/24 20:34:09;;;;;;;2.35;2.13;;;17.20;99.90;;;;;;5031571;28;20664;-44
2021/06/24 20:36:37;;;;;;;5.80;5.10;;;17.10;99.90;;;;;;5031385;28;20213;-43
2021/06/24 20:39:06;;;;;;;1.60;1.50;;;17.10;99.90;;;;;;5035493;28;20209;-42
2021/06/24 20:41:34;;;;;;;1.13;1.00;;;17.10;99.90;;;;;;5035747;28;20213;-43
2021/06/24 20:44:06;;;;;;;3.13;1.50;;;17.10;99.90;;;;;;5035379;28;20208;-42
2021/06/24 20:46:35;;;;;;;2.70;1.90;;;17.00;99.90;;;;;;5035291;28;20296;-45
2021/06/24 20:49:03;;;;;;;3.60;2.33;;;16.90;99.90;;;;;;5035327;28;20213;-45
2021/06/24 20:51:31;;;;;;;3.20;2.60;;;16.80;99.90;;;;;;5035198;28;20291;-42
2021/06/24 20:53:59;;;;;;;3.42;1.80;;;16.70;99.90;;;;;;5035469;28;20303;-45
2021/06/24 20:56:29;;;;;;;3.28;2.13;;;16.70;99.90;;;;;;5035307;28;20299;-41
2021/06/24 20:58:57;;;;;;;2.85;1.92;;;16.60;99.90;;;;;;5035208;28;20263;-45
2021/06/24 21:01:25;;;;;;;1.60;1.35;;;16.60;99.90;;;;;;5035105;28;20235;-42
2021/06/24 21:03:53;;;;;;;2.65;1.35;;;16.60;99.90;;;;;;5035033;28;20208;-42
2021/06/24 21:06:21;;;;;;;3.40;1.27;;;16.60;99.90;;;;;;5035034;28;20296;-42
2021/06/24 21:08:49;;;;;;;2.63;1.60;;;16.50;99.90;;;;;;5035177;28;20262;-42
2021/06/24 21:11:17;;;;;;;1.65;1.55;;;16.50;99.90;;;;;;5035322;28;20228;-43
2021/06/24 21:13:55;;;;;;;6.22;1.60;;;16.60;99.90;;;;;;5034959;28;20235;-41
2021/06/24 21:16:24;;;;;;;3.63;1.77;;;16.70;99.90;;;;;;5034892;28;20287;-42
2021/06/24 21:18:52;;;;;;;1.48;1.38;;;16.70;99.90;;;;;;5034799;28;20213;-42
2021/06/24 21:21:20;;;;;;;1.77;1.58;;;16.70;99.90;;;;;;5034685;28;20324;-42
2021/06/24 21:23:49;;;;;;;2.70;1.63;;;16.80;99.90;;;;;;5034991;28;20304;-41
2021/06/24 21:26:17;;;;;;;1.98;1.35;;;16.90;99.90;;;;;;5034868;28;20212;-42
2021/06/24 21:28:45;;;;;;;1.77;1.50;;;17.00;99.90;;;;;;5034799;28;20295;-46
2021/06/24 21:31:15;;;;;;;1.60;1.25;;;17.00;99.90;;;;;;5034849;28;20208;-44
2021/06/24 21:33:43;;;;;;;1.55;1.45;;;17.10;99.90;;;;;;5034824;28;20212;-42
2021/06/24 21:36:11;;;;;;;1.92;1.58;;;17.10;99.90;;;;;;5034520;28;20215;-42
2021/06/24 21:38:39;;;;;;;2.22;1.85;;;17.10;99.90;;;;;;5034551;28;20204;-42
2021/06/24 21:41:07;;;;;;;1.38;1.27;;;17.10;99.90;;;;;;5034512;28;20323;-42
2021/06/24 21:43:35;;;;;;;2.00;1.48;;;17.20;99.90;;;;;;5034471;28;20215;-43
2021/06/24 21:46:03;;;;;;;2.10;1.42;;;17.20;99.90;;;;;;5034717;28;20205;-42
2021/06/24 21:48:33;;;;;;;1.40;1.30;;;17.20;99.90;;;;;;5033630;28;20213;-43
2021/06/24 21:51:01;;;;;;;2.50;1.73;;;17.30;99.90;;;;;;5034316;28;20702;-40
2021/06/24 21:53:29;;;;;;;2.72;1.85;;;17.30;99.90;;;;;;5034314;28;20287;-40
2021/06/24 21:55:57;;;;;;;1.40;1.27;;;17.30;99.90;;;;;;5034059;28;20299;-40
2021/06/24 21:58:26;;;;;;;2.42;1.52;;;17.20;99.90;;;;;;5034216;28;20208;-42
2021/06/24 22:00:55;;;;;;;2.60;1.90;;;17.20;99.90;;;;;;5034289;28;20319;-41
2021/06/24 22:03:23;;;;;;;2.50;1.95;;;17.30;99.90;;;;;;5034057;28;20244;-42
2021/06/24 22:05:52;;;;;;;2.67;1.70;;;17.20;99.90;;;;;;5034147;28;20219;-41
2021/06/24 22:08:21;;;;;;;1.58;1.48;;;17.20;99.90;;;;;;5033784;28;20209;-40
2021/06/24 22:10:50;;;;;;;4.78;3.28;;;17.10;99.90;;;;;;5033943;28;20236;-42
2021/06/24 22:13:18;;;;;;;2.30;2.10;;;17.10;99.90;;;;;;5034106;28;20215;-44
2021/06/24 22:15:46;;;;;;;3.67;2.15;;;17.00;99.90;;;;;;5033929;28;20291;-41
2021/06/24 22:18:14;;;;;;;4.00;2.20;;;17.00;99.90;;;;;;5033877;28;20570;-41
2021/06/24 22:20:43;;;;;;;2.15;1.80;;;16.90;99.90;;;;;;5033598;28;20221;-40
2021/06/24 22:23:13;;;;;;;3.95;2.63;;;16.90;99.90;;;;;;5033665;28;20252;-40
2021/06/24 22:25:41;;;;;;;6.95;3.42;;;16.80;99.90;;;;;;5033983;28;20212;-41
2021/06/24 22:28:09;;;;;;;2.63;2.42;;;16.80;99.90;;;;;;5033834;28;20219;-40
2021/06/24 22:30:37;;;;;;;2.17;1.98;;;16.70;99.90;;;;;;5033425;28;20303;-42
2021/06/24 22:33:05;;;;;;;2.35;2.15;;;16.70;99.90;;;;;;5033652;28;20299;-42
2021/06/24 22:35:34;;;;;;;2.38;2.13;;;16.70;99.90;;;;;;5033400;28;20255;-41
2021/06/24 22:38:02;;;;;;;3.67;2.20;;;16.70;99.90;;;;;;5033593;28;20292;-40
2021/06/24 22:40:31;;;;;;;1.98;1.88;;;16.70;99.90;;;;;;5033742;28;20289;-40
2021/06/24 22:43:00;;;;;;;2.40;2.20;;;16.60;99.90;;;;;;5033396;28;20300;-41
2021/06/24 22:45:28;;;;;;;2.42;2.00;;;16.60;99.90;;;;;;5033306;28;20729;-40
2021/06/24 22:47:57;;;;;;;2.75;2.20;;;16.70;99.90;;;;;;5033145;28;20738;-41
2021/06/24 22:50:25;;;;;;;2.53;2.33;;;16.70;99.90;;;;;;5033221;28;20215;-41
2021/06/24 22:52:53;;;;;;;2.22;1.67;;;16.70;99.90;;;;;;5033114;28;20625;-41
2021/06/24 22:55:21;;;;;;;3.25;2.00;;;16.70;99.90;;;;;;5033266;28;20240;-41
2021/06/24 22:57:51;;;;;;;2.25;1.88;;;16.70;99.90;;;;;;5033112;28;20213;-40
2021/06/24 23:00:20;;;;;;;1.67;1.40;;;16.70;99.90;;;;;;5032911;28;20564;-41
2021/06/24 23:02:48;;;;;;;1.60;1.50;;;16.70;99.90;;;;;;5032847;28;20709;-40
2021/06/24 23:05:15;;;;;;;1.98;1.80;;;16.70;99.90;;;;;;5033124;28;20300;-43
2021/06/24 23:07:43;;;;;;;1.95;1.70;;;16.80;99.90;;;;;;5032707;28;20213;-42
2021/06/24 23:10:12;;;;;;;1.88;1.77;;;16.70;99.90;;;;;;5032579;28;20331;-43
2021/06/24 23:12:40;;;;;;;2.15;1.67;;;16.80;99.90;;;;;;5032770;28;20212;-42
2021/06/24 23:15:11;;;;;;;1.98;1.88;;;16.80;99.90;;;;;;5032501;28;20208;-41
2021/06/24 23:17:39;;;;;;;1.42;1.33;;;16.80;99.90;;;;;;5032638;28;20291;-41
2021/06/24 23:20:08;;;;;;;1.90;1.80;;;16.80;99.90;;;;;;5032574;28;20750;-41
2021/06/24 23:22:36;;;;;;;2.17;1.98;;;16.80;99.90;;;;;;5032569;28;20323;-42
2021/06/24 23:25:04;;;;;;;2.78;1.80;;;16.80;99.90;;;;;;5032659;28;20209;-41